Share

Rome, OR

Mountain Home Air Force Base (KMUO) Elev 2995 ft | 43.04 °N, 115.87 °W | Change Station

Current weather conditions updated 45 minutes ago

Clear
Clear
63 °F
Feels Like 63 °F
N
13
Wind Variable Wind from North
Sunrise 7:03 AM
Sunset 8:35 PM
Moon Waning Gibbous

Tomorrow is forecast to be Much Warmer than today.

Pressure 29.97 in
Visibility 10.0 miles
Clouds Clear
Dew Point 25 °F
Humidity 24%
Rainfall 0.00 in
Snow Depth Not available.
UV 7 out of 16
Pollen 9.50 out of 12
Air Quality Not available.
Flu Activity Sporadic
SPECI KMUO 182206Z AUTO 35011KT 10SM CLR 17/M04 A2997 RMK AO2 WSHFT 02

More Conditions Fewer Conditions

Pressure 29.97 in
Visibility 10.0 miles
Clouds Clear
Dew Point 25 °F
Humidity 24%
Rainfall 0.00 in
Snow Depth Not available.
UV 7 out of 16
Pollen 9.50 out of 12
Air Quality Not available.
Flu Activity Sporadic
SPECI KMUO 182206Z AUTO 35011KT 10SM CLR 17/M04 A2997 RMK AO2 WSHFT 02

More Conditions Fewer Conditions

10-Day Weather Forecast

Almanac

Astronomy

Apr. 18, 2014 Rise Set
Actual Time 7:03 AM MDT 8:35 PM MDT
Civil Twilight 6:33 AM MDT 9:05 PM MDT
Nautical Twilight 5:58 AM MDT 9:40 PM MDT
Astronomical Twilight 5:20 AM MDT 10:19 PM MDT
Moon No Moon Rise 9:26 AM MDT
Length of Visible Light 14h 31m
Length of Day
13h 31m
Tomorrow will be 2m 43s longer.
Waning Gibbous, 85% of the Moon is Illuminated
Today
Waning Gibbous
Apr 22
Last Quarter
Apr 29
New
May 6
First Quarter
May 14
Full

Today's Extremes

State Highs State Lows

Community

  • Spring Chickadee
    Spring Chickadee
  • What's for Lunch?
    What's for Lunch?
  • SUNRISE THROUGH THE TREES.
    SUNRISE THROUGH THE TREES.
  • Dog Wood Blossoms
    Dog Wood Blossoms
  • Morning Light
    Morning Light

WunderPhotos

Upload Photos

1,702,528 photos uploaded!

WunderBlogs® & News

Nearby

Snow Depth

Station Depth Elevation
Fish Creek 49 in 7900 ft
Silvies 2 in 6900 ft
Rock Springs 0 in 5550 ft
Blue Mountain Spring 15 in 5900 ft
Snow Mountain 11 in 6220 ft

Coastal Water Temperatures

Place Temperature
No Stations Reporting

Earthquake Activity

City Distance Mag. Time & Date
No recent earthquake activity has been reported nearby.
Minimum magnitude displayed is 2.5.

Nearby Weather Stations

Station Location Temp. Dew Point Humidity Wind Precip. Elev Updated Type
RAWS GRASSY MOUNTAIN OR, Jordan Valley, OR 57 °F 30 °F 35% WSW  at  6 mph 0.00 in / hr 4560 ft 3:24 PM MDT MADIS

Show More Stations Show Fewer Stations

What do you think?

We're not finished. Please let us know what you like, what you don't like, and what you are still missing.